Main page
METAR-TAF:

METAR-TAF

Airports :

North Bay/Jack Garland Airport

North Bay, Ontario, Canada

latitude: 46-21N, longitude: 079-26W, elevation: 358 m

Current weather observation

The report was made 1 hour and 12 minutes ago, at 20:00 UTC
Wind 7 kt from the Southwest
Temperature -18°C
Humidity 71%
Pressure 1039 hPa
Visibility: 48.3 km
Few clouds at a height of 27000 ft

METAR: CYYB 172000Z 22007KT 30SM FEW270 M18/M22 A3069 RMK CI2 SLP439

Time: 16:12 (21:12 UTC)

Forecast

The report was made 1 hour and 34 minutes ago, at 19:38 UTC
Forecast valid from 17 at 20 UTC to 18 at 08 UTC
Wind 5 kt from the Northwest
Visibility: 10 km
Clear sky
From 18 at 0600 UTC
Wind 5 kt from the East/Southeast
Visibility: 10 km
Broken clouds at a height of 14000 ft

TAF: CYYB 171938Z 1720/1808 32005KT P6SM SKC FM180600 12005KT P6SM BKN140 RMK NXT FCST BY 180200Z

Weather observations and forecasts of more than 4000 airports (METAR and TAF reports).

The available stations are represented by yellow and red dots on the map.

Hover mouse over dot to see the name of the station.

Then click to see weather observations and forecasts.

To change the map : click on the green buttons with a black cross to zoom in, on the green button with a dash to zoom out, or on the green arrows for adjacent maps.


METAR-TAF: